Pagrindinis puslapis
METAR-TAF:

METAR-TAF

Oro uostai :

Rabato oro uostas

Rabatas, Marokas

platuma: 34-03N, ilguma: 006-46W, Aukštis: 84 m

Dabartinis oras

Ataskaita buvo paskelbta 20 minutes, ne 08:00 UTC
Vėjas 6 kt iš Rytų/Pietryčių
Temperatūra 11°C
Drėgmė 76%
Slėgis 1025 hPa
Matomumas: 8000 m

METAR: GMME 230800Z 12006KT 8000 NSC 11/07 Q1025 NOSIG

Laikas: 09:20 (08:20 UTC)

Prognozė

Ataskaita buvo paskelbta 3 valandos ir 20 minutes, ne 05:00 UTC
Prognozė galioja nuo 23 metu 06 UTC su 24 metu 12 UTC
Vėjas 6 kt iš Pietų/Pietryčių
Matomumas: 7000 m
Laikinai
nuo 23 metu 12 UTC su 23 metu 18 UTC
Vėjas 10 kt iš Šiaurės/Šiaurės Vakarų
Matomumas 10 km arba daugiau
nėra debesų žemiau 1500 m ir nėra kamuolinių lietaus debesų

TAF: GMME 230500Z 2306/2412 15006KT 7000 NSC TEMPO 2312/2318 33010KT CAVOK

Orai ataskaitas ir orų prognozės (METAR, TAF).

turimą stotys yra geltonos ir raudonos taškus žemėlapyje.

Perkelti pele per norėdami pamatyti stoties vardą.

Tada spustelėkite, norėdami matyti oro stebėjimo ir prognozės.

Norėdami pakeisti žemėlapį: spustelėkite ant žalios mygtukų su juodo kryžiaus žemyn,; žalią mygtuką su brūkšneliu, jei norite nutolinti; arba žalių rodyklių gretimoms žemėlapius.


METAR-TAF: